createdAt,value
2017-04-29T00:00:09.876Z,5.40
2017-04-29T00:02:39.032Z,5.20
2017-04-29T00:05:08.630Z,5.10
2017-04-29T00:07:38.545Z,5.10
2017-04-29T00:10:07.731Z,5.00
2017-04-29T00:12:36.924Z,4.80
2017-04-29T00:15:06.089Z,4.80
2017-04-29T00:17:35.266Z,4.70
2017-04-29T00:20:04.460Z,4.60
2017-04-29T00:22:33.280Z,4.50
2017-04-29T00:25:02.676Z,4.40
2017-04-29T00:27:31.530Z,4.30
2017-04-29T00:30:01.428Z,4.30
2017-04-29T00:32:30.618Z,4.30
2017-04-29T00:34:59.818Z,4.40
2017-04-29T00:37:28.988Z,4.40
2017-04-29T00:39:58.168Z,4.40
2017-04-29T00:42:27.030Z,4.30
2017-04-29T00:44:56.938Z,4.20
2017-04-29T00:47:25.698Z,4.20
2017-04-29T00:49:54.557Z,4.10
2017-04-29T00:52:23.385Z,4.10
2017-04-29T00:54:52.553Z,4.00
2017-04-29T00:57:21.769Z,4.00
2017-04-29T00:59:50.984Z,3.90
2017-04-29T01:02:20.157Z,3.90
2017-04-29T01:04:49.361Z,3.90
2017-04-29T01:07:18.533Z,4.10
2017-04-29T01:09:47.694Z,4.10
2017-04-29T01:12:16.550Z,4.10
2017-04-29T01:14:45.717Z,4.10
2017-04-29T01:17:14.893Z,4.20
2017-04-29T01:19:44.813Z,4.10
2017-04-29T01:22:14.717Z,4.10
2017-04-29T01:24:43.892Z,4.10
2017-04-29T01:27:13.089Z,4.00
2017-04-29T01:29:42.492Z,4.00
2017-04-29T01:32:11.666Z,4.00
2017-04-29T01:34:40.857Z,4.00
2017-04-29T01:37:10.017Z,3.90
2017-04-29T01:39:39.189Z,3.80
2017-04-29T01:42:08.389Z,3.70
2017-04-29T01:44:37.553Z,3.70
2017-04-29T01:47:06.717Z,3.70
2017-04-29T01:49:36.646Z,3.70
2017-04-29T01:52:05.118Z,3.60
2017-04-29T01:54:35.025Z,3.60
2017-04-29T01:57:04.982Z,3.50
2017-04-29T01:59:34.149Z,3.50
2017-04-29T02:02:04.065Z,3.40
2017-04-29T02:04:33.661Z,3.30
2017-04-29T02:07:02.829Z,3.30
2017-04-29T02:09:31.997Z,3.30
2017-04-29T02:12:00.845Z,3.20
2017-04-29T02:14:30.390Z,3.10
2017-04-29T02:16:59.226Z,3.20
2017-04-29T02:19:28.416Z,3.20
2017-04-29T02:21:57.688Z,3.20
2017-04-29T02:24:26.866Z,3.20
2017-04-29T02:26:56.065Z,3.10
2017-04-29T02:29:25.290Z,3.10
2017-04-29T02:31:55.897Z,3.00
2017-04-29T02:34:25.096Z,2.90
2017-04-29T02:36:54.283Z,2.90
2017-04-29T02:39:23.470Z,2.80
2017-04-29T02:41:52.330Z,2.80
2017-04-29T02:44:21.518Z,2.80
2017-04-29T02:46:50.685Z,2.80
2017-04-29T02:49:19.528Z,2.80
2017-04-29T02:51:48.346Z,2.80
2017-04-29T02:54:18.258Z,2.70
2017-04-29T02:56:47.465Z,2.70
2017-04-29T02:59:17.374Z,2.60
2017-04-29T03:01:46.600Z,2.40
2017-04-29T03:04:15.800Z,2.40
2017-04-29T03:06:44.978Z,2.30
2017-04-29T03:09:14.203Z,2.30
2017-04-29T03:11:43.417Z,2.40
2017-04-29T03:14:12.586Z,2.50
2017-04-29T03:16:42.506Z,2.60
2017-04-29T03:19:12.493Z,2.60
2017-04-29T03:21:41.656Z,2.80
2017-04-29T03:24:10.817Z,2.80
2017-04-29T03:26:40.766Z,2.90
2017-04-29T03:29:09.934Z,3.00
2017-04-29T03:31:39.105Z,3.10
2017-04-29T03:34:08.297Z,3.20
2017-04-29T03:36:37.466Z,3.20
2017-04-29T03:39:06.628Z,3.20
2017-04-29T03:41:35.828Z,3.20
2017-04-29T03:44:04.989Z,3.30
2017-04-29T03:46:34.164Z,3.30
2017-04-29T03:49:03.390Z,3.40
2017-04-29T03:51:32.556Z,3.30
2017-04-29T03:54:01.378Z,3.40
2017-04-29T03:56:30.578Z,3.40
2017-04-29T03:58:59.746Z,3.50
2017-04-29T04:01:28.906Z,3.50
2017-04-29T04:03:58.902Z,3.50
2017-04-29T04:06:28.085Z,3.60
2017-04-29T04:08:57.250Z,3.60
2017-04-29T04:11:27.868Z,3.50
2017-04-29T04:13:57.045Z,3.50
2017-04-29T04:16:26.969Z,3.60
2017-04-29T04:18:56.161Z,3.60
2017-04-29T04:21:26.140Z,3.60
2017-04-29T04:23:55.314Z,3.60
2017-04-29T04:26:24.512Z,3.70
2017-04-29T04:28:53.681Z,3.70
2017-04-29T04:31:23.596Z,3.80
2017-04-29T04:33:52.986Z,3.90
2017-04-29T04:36:22.888Z,4.00
2017-04-29T04:38:52.080Z,4.10
2017-04-29T04:41:21.244Z,4.00
2017-04-29T04:43:50.409Z,4.00
2017-04-29T04:46:18.913Z,3.90
2017-04-29T04:48:48.072Z,4.00
2017-04-29T04:51:17.232Z,4.00
2017-04-29T04:53:46.757Z,4.30
2017-04-29T04:56:15.581Z,5.00
2017-04-29T04:58:45.496Z,6.10
2017-04-29T05:01:15.437Z,6.60
2017-04-29T05:03:44.605Z,6.80
2017-04-29T05:06:14.519Z,7.20
2017-04-29T05:08:44.454Z,7.70
2017-04-29T05:11:13.618Z,8.10
2017-04-29T05:13:42.787Z,8.60
2017-04-29T05:16:12.086Z,9.00
2017-04-29T05:18:41.254Z,9.30
2017-04-29T05:21:10.418Z,8.80
2017-04-29T05:23:39.604Z,9.10
2017-04-29T05:26:08.421Z,9.60
2017-04-29T05:28:38.320Z,9.60
2017-04-29T05:31:07.512Z,9.10
2017-04-29T05:33:36.668Z,8.00
2017-04-29T05:36:05.550Z,7.80
2017-04-29T05:38:34.746Z,7.90
2017-04-29T05:41:04.193Z,7.50
2017-04-29T05:43:33.363Z,7.50
2017-04-29T05:46:02.565Z,8.60
2017-04-29T05:48:31.725Z,9.50
2017-04-29T05:51:01.660Z,9.70
2017-04-29T05:53:30.857Z,10.10
2017-04-29T05:56:00.857Z,9.60
2017-04-29T05:58:30.462Z,9.60
2017-04-29T06:01:00.397Z,10.20
2017-04-29T06:03:29.569Z,11.70
2017-04-29T06:05:58.754Z,12.70
2017-04-29T06:08:27.948Z,11.50
2017-04-29T06:10:57.125Z,11.10
2017-04-29T06:13:26.289Z,10.80
2017-04-29T06:15:56.221Z,10.00
2017-04-29T06:18:25.381Z,10.90
2017-04-29T06:20:54.553Z,12.00
2017-04-29T06:23:23.748Z,10.80
2017-04-29T06:25:52.601Z,11.20
2017-04-29T06:28:21.764Z,12.40
2017-04-29T06:30:51.450Z,13.60
2017-04-29T06:33:20.621Z,14.70
2017-04-29T06:35:49.445Z,14.60
2017-04-29T06:38:18.641Z,13.60
2017-04-29T06:40:47.470Z,14.40
2017-04-29T06:43:17.033Z,12.90
2017-04-29T06:45:46.229Z,14.60
2017-04-29T06:48:15.397Z,13.60
2017-04-29T06:50:45.756Z,14.80
2017-04-29T06:53:15.260Z,15.30
2017-04-29T06:55:44.421Z,15.90
2017-04-29T06:58:12.889Z,13.50
2017-04-29T07:00:42.833Z,12.90
2017-04-29T07:03:11.992Z,12.10
2017-04-29T07:05:41.917Z,14.00
2017-04-29T07:08:11.513Z,13.40
2017-04-29T07:10:40.680Z,12.50
2017-04-29T07:13:09.500Z,13.60
2017-04-29T07:15:38.700Z,13.30
2017-04-29T07:18:07.870Z,13.90
2017-04-29T07:20:37.032Z,14.80
2017-04-29T07:23:05.876Z,15.50
2017-04-29T07:25:35.046Z,14.50
2017-04-29T07:28:04.212Z,14.40
2017-04-29T07:30:33.085Z,14.60
2017-04-29T07:33:02.994Z,14.90
2017-04-29T07:35:32.934Z,15.00
2017-04-29T07:38:02.101Z,16.10
2017-04-29T07:40:31.264Z,15.30
2017-04-29T07:43:00.460Z,14.50
2017-04-29T07:45:29.633Z,14.40
2017-04-29T07:47:58.807Z,13.40
2017-04-29T07:50:28.553Z,14.40
2017-04-29T07:52:57.382Z,15.50
2017-04-29T07:55:26.554Z,15.10
2017-04-29T07:57:55.754Z,14.40
2017-04-29T08:00:24.245Z,12.80
2017-04-29T08:02:53.438Z,12.70
2017-04-29T08:05:22.284Z,13.00
2017-04-29T08:07:52.185Z,13.40
2017-04-29T08:10:21.356Z,14.30
2017-04-29T08:12:50.549Z,14.70
2017-04-29T08:15:19.717Z,15.00
2017-04-29T08:17:48.879Z,14.20
2017-04-29T08:20:18.077Z,14.90
2017-04-29T08:22:47.984Z,17.90
2017-04-29T08:25:17.169Z,18.90
2017-04-29T08:27:46.365Z,20.70
2017-04-29T08:30:15.181Z,18.40
2017-04-29T08:32:44.344Z,16.80
2017-04-29T08:35:13.545Z,16.40
2017-04-29T08:37:42.721Z,18.60
2017-04-29T08:40:11.550Z,18.70
2017-04-29T08:42:40.749Z,16.30
2017-04-29T08:45:09.565Z,17.00
2017-04-29T08:47:39.473Z,18.00
2017-04-29T08:50:07.961Z,18.10
2017-04-29T08:52:37.526Z,19.70
2017-04-29T08:55:06.349Z,21.50
2017-04-29T08:57:35.528Z,19.80
2017-04-29T09:00:04.692Z,20.30
2017-04-29T09:02:33.853Z,17.10
2017-04-29T09:05:04.445Z,15.60
2017-04-29T09:07:33.268Z,13.30
2017-04-29T09:10:02.438Z,14.30
2017-04-29T09:12:31.625Z,13.80
2017-04-29T09:15:03.243Z,14.00
2017-04-29T09:17:32.450Z,14.10
2017-04-29T09:20:01.627Z,16.10
2017-04-29T09:22:31.550Z,18.90
2017-04-29T09:25:01.481Z,19.50
2017-04-29T09:27:30.645Z,17.60
2017-04-29T09:29:59.806Z,16.00
2017-04-29T09:32:28.996Z,15.30
2017-04-29T09:34:58.252Z,15.40
2017-04-29T09:37:28.193Z,14.30
2017-04-29T09:39:57.394Z,13.40
2017-04-29T09:42:26.597Z,13.40
2017-04-29T09:44:55.778Z,14.90
2017-04-29T09:47:25.365Z,15.40
2017-04-29T09:49:54.551Z,14.80
2017-04-29T09:52:24.081Z,15.20
2017-04-29T09:54:54.049Z,15.70
2017-04-29T09:57:23.310Z,15.00
2017-04-29T09:59:53.224Z,14.80
2017-04-29T10:02:27.259Z,14.10
2017-04-29T10:04:56.577Z,14.20
2017-04-29T10:07:26.620Z,15.60
2017-04-29T10:09:55.795Z,15.30
2017-04-29T10:12:24.614Z,15.90
2017-04-29T10:14:53.813Z,16.10
2017-04-29T10:17:22.989Z,15.80
2017-04-29T10:19:52.191Z,16.20
2017-04-29T10:22:21.399Z,15.20
2017-04-29T10:24:50.561Z,15.50
2017-04-29T10:27:20.807Z,15.50
2017-04-29T10:29:50.038Z,17.00
2017-04-29T10:32:19.204Z,18.30
2017-04-29T10:34:48.414Z,18.80
2017-04-29T10:37:17.640Z,16.80
2017-04-29T10:39:46.800Z,17.50
2017-04-29T10:42:15.980Z,19.70
2017-04-29T10:44:45.141Z,21.00
2017-04-29T10:47:15.052Z,17.90
2017-04-29T10:49:44.248Z,17.80
2017-04-29T10:52:13.418Z,18.00
2017-04-29T10:54:42.580Z,16.60
2017-04-29T10:57:11.829Z,16.90
2017-04-29T10:59:40.997Z,17.60
2017-04-29T11:02:10.156Z,18.40
2017-04-29T11:04:40.310Z,18.80
2017-04-29T11:07:09.468Z,17.10
2017-04-29T11:09:39.389Z,16.00
2017-04-29T11:12:09.569Z,16.20
2017-04-29T11:14:38.741Z,17.00
2017-04-29T11:17:07.904Z,18.20
2017-04-29T11:19:37.841Z,17.50
2017-04-29T11:22:07.008Z,16.50
2017-04-29T11:24:36.168Z,15.60
2017-04-29T11:27:05.370Z,16.20
2017-04-29T11:29:34.537Z,15.30
2017-04-29T11:32:03.370Z,14.60
2017-04-29T11:34:32.561Z,14.00
2017-04-29T11:37:01.724Z,13.80
2017-04-29T11:39:30.880Z,14.60
2017-04-29T11:42:00.078Z,16.20
2017-04-29T11:44:29.251Z,15.20
2017-04-29T11:46:58.412Z,16.70
2017-04-29T11:49:27.608Z,17.40
2017-04-29T11:51:57.513Z,18.10
2017-04-29T11:54:27.456Z,18.60
2017-04-29T11:56:56.617Z,16.40
2017-04-29T11:59:25.785Z,15.50
2017-04-29T12:01:54.974Z,14.00
2017-04-29T12:04:24.136Z,13.40
2017-04-29T12:06:53.302Z,13.40
2017-04-29T12:09:22.526Z,13.50
2017-04-29T12:11:51.697Z,13.70
2017-04-29T12:14:20.861Z,14.30
2017-04-29T12:16:50.053Z,14.80
2017-04-29T12:19:19.218Z,14.90
2017-04-29T12:21:49.132Z,15.40
2017-04-29T12:24:19.065Z,15.60
2017-04-29T12:26:48.229Z,15.30
2017-04-29T12:29:17.389Z,15.60
2017-04-29T12:31:46.584Z,15.80
2017-04-29T12:34:15.760Z,16.00
2017-04-29T12:36:44.924Z,15.80
2017-04-29T12:39:14.109Z,15.70
2017-04-29T12:41:43.268Z,15.40
2017-04-29T12:44:12.134Z,15.60
2017-04-29T12:46:41.336Z,15.70
2017-04-29T12:49:11.273Z,15.40
2017-04-29T12:51:40.463Z,14.90
2017-04-29T12:54:09.656Z,15.20
2017-04-29T12:56:38.825Z,15.20
2017-04-29T12:59:07.984Z,15.60
2017-04-29T13:01:37.177Z,15.00
2017-04-29T13:04:06.358Z,15.60
2017-04-29T13:06:35.525Z,16.20
2017-04-29T13:09:04.789Z,16.80
2017-04-29T13:11:33.608Z,17.10
2017-04-29T13:14:02.782Z,18.00
2017-04-29T13:16:31.993Z,18.40
2017-04-29T13:19:01.163Z,17.30
2017-04-29T13:21:30.325Z,16.80
2017-04-29T13:24:00.308Z,15.50
2017-04-29T13:26:29.130Z,15.40
2017-04-29T13:28:59.041Z,14.90
2017-04-29T13:31:28.977Z,14.40
2017-04-29T13:33:58.137Z,15.50
2017-04-29T13:36:27.309Z,15.30
2017-04-29T13:38:56.501Z,13.50
2017-04-29T13:41:25.664Z,13.90
2017-04-29T13:43:54.486Z,14.70
2017-04-29T13:46:23.709Z,15.70
2017-04-29T13:48:52.882Z,16.30
2017-04-29T13:51:22.047Z,15.80
2017-04-29T13:53:51.245Z,15.30
2017-04-29T13:56:20.408Z,16.10
2017-04-29T13:58:49.568Z,16.60
2017-04-29T14:01:18.762Z,16.70
2017-04-29T14:03:47.926Z,16.90
2017-04-29T14:06:17.857Z,15.60
2017-04-29T14:08:47.026Z,16.20
2017-04-29T14:11:16.194Z,18.00
2017-04-29T14:13:45.385Z,17.20
2017-04-29T14:16:14.558Z,17.30
2017-04-29T14:18:43.726Z,17.80
2017-04-29T14:21:12.925Z,17.50
2017-04-29T14:23:42.841Z,15.80
2017-04-29T14:26:12.011Z,16.00
2017-04-29T14:28:41.205Z,16.40
2017-04-29T14:31:10.373Z,17.10
2017-04-29T14:33:39.193Z,16.50
2017-04-29T14:36:08.394Z,16.30
2017-04-29T14:38:37.555Z,16.50
2017-04-29T14:41:06.716Z,16.20
2017-04-29T14:43:35.937Z,15.90
2017-04-29T14:46:05.850Z,15.40
2017-04-29T14:48:35.760Z,15.60
2017-04-29T14:51:05.352Z,15.70
2017-04-29T14:53:34.522Z,15.60
2017-04-29T14:56:03.345Z,15.80
2017-04-29T14:58:32.540Z,15.10
2017-04-29T15:01:01.703Z,15.20
2017-04-29T15:03:30.860Z,15.00
2017-04-29T15:06:00.789Z,14.50
2017-04-29T15:08:29.949Z,14.50
2017-04-29T15:10:59.109Z,14.60
2017-04-29T15:13:28.300Z,14.90
2017-04-29T15:15:57.464Z,16.60
2017-04-29T15:18:27.386Z,17.80
2017-04-29T15:20:57.325Z,18.60
2017-04-29T15:23:26.494Z,18.40
2017-04-29T15:25:56.408Z,18.10
2017-04-29T15:28:26.345Z,16.50
2017-04-29T15:30:55.519Z,15.90
2017-04-29T15:33:25.397Z,16.00
2017-04-29T15:35:54.585Z,16.20
2017-04-29T15:38:23.754Z,17.00
2017-04-29T15:40:52.954Z,17.10
2017-04-29T15:43:22.415Z,16.80
2017-04-29T15:45:51.576Z,16.80
2017-04-29T15:48:20.781Z,16.00
2017-04-29T15:50:49.937Z,15.10
2017-04-29T15:53:19.874Z,15.00
2017-04-29T15:55:49.045Z,14.80
2017-04-29T15:58:18.962Z,14.40
2017-04-29T16:00:48.896Z,14.40
2017-04-29T16:03:18.071Z,14.40
2017-04-29T16:05:47.539Z,14.70
2017-04-29T16:08:16.747Z,14.30
2017-04-29T16:10:45.908Z,14.30
2017-04-29T16:13:15.074Z,14.30
2017-04-29T16:15:45.005Z,14.40
2017-04-29T16:18:14.904Z,14.50
2017-04-29T16:20:44.076Z,14.80
2017-04-29T16:23:13.272Z,14.90
2017-04-29T16:25:42.445Z,14.90
2017-04-29T16:28:11.617Z,15.10
2017-04-29T16:30:41.552Z,14.40
2017-04-29T16:33:10.714Z,14.60
2017-04-29T16:35:40.648Z,13.80
2017-04-29T16:38:09.842Z,14.20
2017-04-29T16:40:39.745Z,13.80
2017-04-29T16:43:09.684Z,14.00
2017-04-29T16:45:38.860Z,13.90
2017-04-29T16:48:08.765Z,14.00
2017-04-29T16:50:37.956Z,14.00
2017-04-29T16:53:07.128Z,14.10
2017-04-29T16:55:36.288Z,14.10
2017-04-29T16:58:05.132Z,13.80
2017-04-29T17:00:34.292Z,13.80
2017-04-29T17:03:03.452Z,14.00
2017-04-29T17:05:32.649Z,13.60
2017-04-29T17:08:01.810Z,13.70
2017-04-29T17:10:30.968Z,13.90
2017-04-29T17:13:00.565Z,14.00
2017-04-29T17:15:30.468Z,13.80
2017-04-29T17:17:59.658Z,13.50
2017-04-29T17:20:28.849Z,13.50
2017-04-29T17:22:58.008Z,13.60
2017-04-29T17:25:27.164Z,13.70
2017-04-29T17:27:56.358Z,13.60
2017-04-29T17:30:25.531Z,13.30
2017-04-29T17:32:54.701Z,13.20
2017-04-29T17:35:23.908Z,13.10
2017-04-29T17:37:53.069Z,13.20
2017-04-29T17:40:22.988Z,13.20
2017-04-29T17:42:52.929Z,13.20
2017-04-29T17:45:22.098Z,13.10
2017-04-29T17:47:52.025Z,13.00
2017-04-29T17:50:21.230Z,13.00
2017-04-29T17:52:50.403Z,12.90
2017-04-29T17:55:20.324Z,12.80
2017-04-29T17:57:50.509Z,12.70
2017-04-29T18:00:19.672Z,12.60
2017-04-29T18:02:48.833Z,12.50
2017-04-29T18:05:17.681Z,12.50
2017-04-29T18:07:46.845Z,12.40
2017-04-29T18:10:16.009Z,12.30
2017-04-29T18:12:45.205Z,12.20
2017-04-29T18:15:14.373Z,12.00
2017-04-29T18:17:43.191Z,11.80
2017-04-29T18:20:12.389Z,11.70
2017-04-29T18:22:41.208Z,11.60
2017-04-29T18:25:10.772Z,11.60
2017-04-29T18:27:39.987Z,11.50
2017-04-29T18:30:10.385Z,11.30
2017-04-29T18:32:39.568Z,11.10
2017-04-29T18:35:08.766Z,11.00
2017-04-29T18:37:37.276Z,10.90
2017-04-29T18:40:06.455Z,10.80
2017-04-29T18:42:35.650Z,10.70
2017-04-29T18:45:04.476Z,10.60
2017-04-29T18:47:33.640Z,10.50
2017-04-29T18:50:02.845Z,10.40
2017-04-29T18:52:32.113Z,10.30
2017-04-29T18:55:01.679Z,10.20
2017-04-29T18:57:30.880Z,10.00
2017-04-29T19:00:00.036Z,9.80
2017-04-29T19:02:29.201Z,9.70
2017-04-29T19:04:58.453Z,9.70
2017-04-29T19:07:27.632Z,9.60
2017-04-29T19:09:56.456Z,9.50
2017-04-29T19:12:25.711Z,9.40
2017-04-29T19:14:54.898Z,9.20
2017-04-29T19:17:24.828Z,9.10
2017-04-29T19:19:54.176Z,8.90
2017-04-29T19:22:23.342Z,8.90
2017-04-29T19:24:52.546Z,8.80
2017-04-29T19:27:21.705Z,8.70
2017-04-29T19:29:51.681Z,8.50
2017-04-29T19:32:20.868Z,8.30
2017-04-29T19:34:50.034Z,8.20
2017-04-29T19:37:19.953Z,8.10
2017-04-29T19:39:49.894Z,8.00
2017-04-29T19:42:18.765Z,8.00
2017-04-29T19:44:47.602Z,7.80
2017-04-29T19:47:16.841Z,7.70
2017-04-29T19:49:46.758Z,7.70
2017-04-29T19:52:16.698Z,7.60
2017-04-29T19:54:45.865Z,7.60
2017-04-29T19:57:15.776Z,7.40
2017-04-29T19:59:44.969Z,7.40
2017-04-29T20:02:14.752Z,7.30
2017-04-29T20:04:47.274Z,7.20
2017-04-29T20:07:19.352Z,7.20
2017-04-29T20:09:49.589Z,7.10
2017-04-29T20:12:19.096Z,7.10
2017-04-29T20:14:48.659Z,7.00
2017-04-29T20:17:18.597Z,6.90
2017-04-29T20:19:48.185Z,6.90
2017-04-29T20:22:17.346Z,6.90
2017-04-29T20:24:46.510Z,6.70
2017-04-29T20:27:16.105Z,6.70
2017-04-29T20:29:46.013Z,6.50
2017-04-29T20:32:15.954Z,6.30
2017-04-29T20:34:44.785Z,6.30
2017-04-29T20:37:14.397Z,6.20
2017-04-29T20:39:43.600Z,6.10
2017-04-29T20:42:12.111Z,6.10
2017-04-29T20:44:41.670Z,6.00
2017-04-29T20:47:10.864Z,6.00
2017-04-29T20:49:40.021Z,6.00
2017-04-29T20:52:09.940Z,6.00
2017-04-29T20:54:39.878Z,6.00
2017-04-29T20:57:09.045Z,6.10
2017-04-29T20:59:38.213Z,6.20
2017-04-29T21:02:07.413Z,6.20
2017-04-29T21:04:36.577Z,6.10
2017-04-29T21:07:05.395Z,6.00
2017-04-29T21:09:34.585Z,5.90
2017-04-29T21:12:03.754Z,5.80
2017-04-29T21:14:33.396Z,5.70
2017-04-29T21:17:02.594Z,5.60
2017-04-29T21:19:31.763Z,5.40
2017-04-29T21:22:00.937Z,5.40
2017-04-29T21:24:30.877Z,5.30
2017-04-29T21:27:00.056Z,5.30
2017-04-29T21:29:29.984Z,5.40
2017-04-29T21:31:59.928Z,5.40
2017-04-29T21:34:29.097Z,5.20
2017-04-29T21:36:58.270Z,5.10
2017-04-29T21:39:27.466Z,5.00
2017-04-29T21:41:56.949Z,5.00
2017-04-29T21:44:26.117Z,5.10
2017-04-29T21:46:55.337Z,5.10
2017-04-29T21:49:24.510Z,4.90
2017-04-29T21:51:53.950Z,4.90
2017-04-29T21:54:22.848Z,5.00
2017-04-29T21:56:52.022Z,4.90
2017-04-29T21:59:21.186Z,4.90
2017-04-29T22:01:50.774Z,4.80
2017-04-29T22:04:19.947Z,4.70
2017-04-29T22:06:49.108Z,4.70
2017-04-29T22:09:18.306Z,4.60
2017-04-29T22:11:47.484Z,4.50
2017-04-29T22:14:17.411Z,4.40
2017-04-29T22:16:46.270Z,4.30
2017-04-29T22:19:16.181Z,4.30
2017-04-29T22:21:44.664Z,4.20
2017-04-29T22:24:13.866Z,4.10
2017-04-29T22:26:43.029Z,4.00
2017-04-29T22:29:12.200Z,3.90
2017-04-29T22:31:41.408Z,3.80
2017-04-29T22:34:10.578Z,3.80
2017-04-29T22:36:40.133Z,3.80
2017-04-29T22:39:09.349Z,3.90
2017-04-29T22:41:38.519Z,3.90
2017-04-29T22:44:07.680Z,3.90
2017-04-29T22:46:37.658Z,3.90
2017-04-29T22:49:06.826Z,3.90
2017-04-29T22:51:35.988Z,3.70
2017-04-29T22:54:05.920Z,3.60
2017-04-29T22:56:35.830Z,3.50
2017-04-29T22:59:05.745Z,3.60
2017-04-29T23:01:35.665Z,3.70
2017-04-29T23:04:04.895Z,3.70
2017-04-29T23:06:34.053Z,3.80
2017-04-29T23:09:03.456Z,3.70
2017-04-29T23:11:33.365Z,3.60
2017-04-29T23:14:02.952Z,3.60
2017-04-29T23:16:32.112Z,3.70
2017-04-29T23:19:01.268Z,3.60
2017-04-29T23:21:30.466Z,3.80
2017-04-29T23:23:59.629Z,3.90
2017-04-29T23:26:28.788Z,3.90
2017-04-29T23:28:57.981Z,3.70
2017-04-29T23:31:27.884Z,3.50
2017-04-29T23:33:57.814Z,3.50
2017-04-29T23:36:27.728Z,3.50
2017-04-29T23:38:57.297Z,3.50
2017-04-29T23:41:26.457Z,3.40
2017-04-29T23:43:55.744Z,3.40
2017-04-29T23:46:24.566Z,3.50
2017-04-29T23:48:53.728Z,3.50
2017-04-29T23:51:22.941Z,3.40
2017-04-29T23:53:52.099Z,3.30
2017-04-29T23:56:21.253Z,3.30
2017-04-29T23:58:50.444Z,3.30
